sensor_id;sensor_type;location;lat;lon;timestamp;P1;durP1;ratioP1;P2;durP2;ratioP2
11500;SDS011;5807;51.606;7.624;2022-11-13T00:00:54;34.50;;;28.83;;
11500;SDS011;5807;51.606;7.624;2022-11-13T00:03:21;30.47;;;25.97;;
11500;SDS011;5807;51.606;7.624;2022-11-13T00:05:56;33.83;;;27.17;;
11500;SDS011;5807;51.606;7.624;2022-11-13T00:08:23;33.53;;;26.57;;
11500;SDS011;5807;51.606;7.624;2022-11-13T00:10:52;32.00;;;26.73;;
11500;SDS011;5807;51.606;7.624;2022-11-13T00:13:25;31.67;;;27.30;;
11500;SDS011;5807;51.606;7.624;2022-11-13T00:15:55;38.40;;;27.40;;
11500;SDS011;5807;51.606;7.624;2022-11-13T00:18:22;32.47;;;26.43;;
11500;SDS011;5807;51.606;7.624;2022-11-13T00:20:49;34.33;;;26.67;;
11500;SDS011;5807;51.606;7.624;2022-11-13T00:23:16;31.77;;;26.27;;
11500;SDS011;5807;51.606;7.624;2022-11-13T00:25:43;32.97;;;25.87;;
11500;SDS011;5807;51.606;7.624;2022-11-13T00:28:11;37.23;;;27.37;;
11500;SDS011;5807;51.606;7.624;2022-11-13T00:30:38;31.30;;;23.47;;
11500;SDS011;5807;51.606;7.624;2022-11-13T00:33:05;30.30;;;22.23;;
11500;SDS011;5807;51.606;7.624;2022-11-13T00:35:32;27.43;;;21.93;;
11500;SDS011;5807;51.606;7.624;2022-11-13T00:37:59;27.07;;;20.47;;
11500;SDS011;5807;51.606;7.624;2022-11-13T00:40:25;25.03;;;20.30;;
11500;SDS011;5807;51.606;7.624;2022-11-13T00:42:52;26.47;;;21.67;;
11500;SDS011;5807;51.606;7.624;2022-11-13T00:45:20;28.33;;;21.83;;
11500;SDS011;5807;51.606;7.624;2022-11-13T00:47:47;29.50;;;22.87;;
11500;SDS011;5807;51.606;7.624;2022-11-13T00:50:14;29.60;;;23.33;;
11500;SDS011;5807;51.606;7.624;2022-11-13T00:52:41;28.17;;;22.50;;
11500;SDS011;5807;51.606;7.624;2022-11-13T00:55:08;28.67;;;23.27;;
11500;SDS011;5807;51.606;7.624;2022-11-13T00:57:35;32.50;;;24.10;;
11500;SDS011;5807;51.606;7.624;2022-11-13T01:00:02;30.13;;;23.23;;
11500;SDS011;5807;51.606;7.624;2022-11-13T01:02:30;27.57;;;22.67;;
11500;SDS011;5807;51.606;7.624;2022-11-13T01:04:57;28.33;;;22.00;;
11500;SDS011;5807;51.606;7.624;2022-11-13T01:07:24;31.07;;;23.97;;
11500;SDS011;5807;51.606;7.624;2022-11-13T01:09:51;27.50;;;22.67;;
11500;SDS011;5807;51.606;7.624;2022-11-13T01:12:18;29.47;;;22.83;;
11500;SDS011;5807;51.606;7.624;2022-11-13T01:14:45;27.57;;;20.30;;
11500;SDS011;5807;51.606;7.624;2022-11-13T01:17:11;26.40;;;21.03;;
11500;SDS011;5807;51.606;7.624;2022-11-13T01:19:40;27.77;;;22.50;;
11500;SDS011;5807;51.606;7.624;2022-11-13T01:22:06;27.30;;;22.00;;
11500;SDS011;5807;51.606;7.624;2022-11-13T01:24:33;29.30;;;22.87;;
11500;SDS011;5807;51.606;7.624;2022-11-13T01:27:00;28.67;;;21.80;;
11500;SDS011;5807;51.606;7.624;2022-11-13T01:29:27;27.93;;;22.30;;
11500;SDS011;5807;51.606;7.624;2022-11-13T01:31:53;29.60;;;23.20;;
11500;SDS011;5807;51.606;7.624;2022-11-13T01:34:20;29.53;;;22.67;;
11500;SDS011;5807;51.606;7.624;2022-11-13T01:36:49;27.53;;;22.17;;
11500;SDS011;5807;51.606;7.624;2022-11-13T01:39:16;29.10;;;23.70;;
11500;SDS011;5807;51.606;7.624;2022-11-13T01:41:42;27.57;;;23.70;;
11500;SDS011;5807;51.606;7.624;2022-11-13T01:44:10;26.10;;;22.87;;
11500;SDS011;5807;51.606;7.624;2022-11-13T01:46:39;29.43;;;21.57;;
11500;SDS011;5807;51.606;7.624;2022-11-13T01:49:16;29.57;;;22.07;;
11500;SDS011;5807;51.606;7.624;2022-11-13T01:51:52;30.13;;;23.63;;
11500;SDS011;5807;51.606;7.624;2022-11-13T01:54:22;35.20;;;23.23;;
11500;SDS011;5807;51.606;7.624;2022-11-13T01:56:51;31.87;;;22.87;;
11500;SDS011;5807;51.606;7.624;2022-11-13T01:59:20;28.27;;;22.00;;
11500;SDS011;5807;51.606;7.624;2022-11-13T02:01:49;28.50;;;22.37;;
11500;SDS011;5807;51.606;7.624;2022-11-13T02:04:16;27.60;;;21.67;;
11500;SDS011;5807;51.606;7.624;2022-11-13T02:06:44;23.63;;;21.07;;
11500;SDS011;5807;51.606;7.624;2022-11-13T02:09:16;30.37;;;23.27;;
11500;SDS011;5807;51.606;7.624;2022-11-13T02:11:45;30.67;;;22.77;;
11500;SDS011;5807;51.606;7.624;2022-11-13T02:14:13;30.20;;;22.80;;
11500;SDS011;5807;51.606;7.624;2022-11-13T02:16:41;28.23;;;22.53;;
11500;SDS011;5807;51.606;7.624;2022-11-13T02:19:11;30.27;;;23.17;;
11500;SDS011;5807;51.606;7.624;2022-11-13T02:21:43;31.73;;;23.23;;
11500;SDS011;5807;51.606;7.624;2022-11-13T02:24:21;26.40;;;21.33;;
11500;SDS011;5807;51.606;7.624;2022-11-13T02:26:50;32.67;;;22.47;;
11500;SDS011;5807;51.606;7.624;2022-11-13T02:29:21;27.83;;;21.47;;
11500;SDS011;5807;51.606;7.624;2022-11-13T02:31:48;29.23;;;22.10;;
11500;SDS011;5807;51.606;7.624;2022-11-13T02:34:15;28.77;;;21.87;;
11500;SDS011;5807;51.606;7.624;2022-11-13T02:36:42;28.17;;;21.03;;
11500;SDS011;5807;51.606;7.624;2022-11-13T02:39:10;26.37;;;21.47;;
11500;SDS011;5807;51.606;7.624;2022-11-13T02:41:39;25.73;;;19.50;;
11500;SDS011;5807;51.606;7.624;2022-11-13T02:44:06;29.77;;;21.77;;
11500;SDS011;5807;51.606;7.624;2022-11-13T02:46:33;25.47;;;20.57;;
11500;SDS011;5807;51.606;7.624;2022-11-13T02:49:00;24.87;;;20.50;;
11500;SDS011;5807;51.606;7.624;2022-11-13T02:51:27;21.93;;;18.80;;
11500;SDS011;5807;51.606;7.624;2022-11-13T02:53:54;24.40;;;19.80;;
11500;SDS011;5807;51.606;7.624;2022-11-13T02:56:21;23.97;;;19.63;;
11500;SDS011;5807;51.606;7.624;2022-11-13T02:58:49;23.07;;;19.00;;
11500;SDS011;5807;51.606;7.624;2022-11-13T03:01:16;25.63;;;19.73;;
11500;SDS011;5807;51.606;7.624;2022-11-13T03:03:43;25.23;;;19.93;;
11500;SDS011;5807;51.606;7.624;2022-11-13T03:06:10;24.23;;;19.50;;
11500;SDS011;5807;51.606;7.624;2022-11-13T03:08:37;21.87;;;18.93;;
11500;SDS011;5807;51.606;7.624;2022-11-13T03:11:05;21.57;;;17.87;;
11500;SDS011;5807;51.606;7.624;2022-11-13T03:13:33;25.47;;;18.33;;
11500;SDS011;5807;51.606;7.624;2022-11-13T03:16:06;20.17;;;17.90;;
11500;SDS011;5807;51.606;7.624;2022-11-13T03:18:34;21.33;;;17.63;;
11500;SDS011;5807;51.606;7.624;2022-11-13T03:21:04;20.70;;;18.03;;
11500;SDS011;5807;51.606;7.624;2022-11-13T03:23:33;20.83;;;17.27;;
11500;SDS011;5807;51.606;7.624;2022-11-13T03:26:01;22.90;;;17.57;;
11500;SDS011;5807;51.606;7.624;2022-11-13T03:28:29;19.47;;;16.27;;
11500;SDS011;5807;51.606;7.624;2022-11-13T03:30:56;20.63;;;16.73;;
11500;SDS011;5807;51.606;7.624;2022-11-13T03:33:24;20.30;;;16.07;;
11500;SDS011;5807;51.606;7.624;2022-11-13T03:35:51;18.73;;;15.67;;
11500;SDS011;5807;51.606;7.624;2022-11-13T03:38:18;21.20;;;16.40;;
11500;SDS011;5807;51.606;7.624;2022-11-13T03:40:45;17.87;;;15.97;;
11500;SDS011;5807;51.606;7.624;2022-11-13T03:43:12;20.97;;;15.60;;
11500;SDS011;5807;51.606;7.624;2022-11-13T03:45:39;20.87;;;15.17;;
11500;SDS011;5807;51.606;7.624;2022-11-13T03:48:06;18.20;;;15.00;;
11500;SDS011;5807;51.606;7.624;2022-11-13T03:50:35;17.87;;;14.97;;
11500;SDS011;5807;51.606;7.624;2022-11-13T03:53:02;23.13;;;15.33;;
11500;SDS011;5807;51.606;7.624;2022-11-13T03:55:29;18.97;;;14.40;;
11500;SDS011;5807;51.606;7.624;2022-11-13T03:57:55;19.33;;;15.10;;
11500;SDS011;5807;51.606;7.624;2022-11-13T04:00:22;19.00;;;14.93;;
11500;SDS011;5807;51.606;7.624;2022-11-13T04:02:49;18.23;;;14.60;;
11500;SDS011;5807;51.606;7.624;2022-11-13T04:05:16;19.40;;;15.40;;
11500;SDS011;5807;51.606;7.624;2022-11-13T04:07:44;17.57;;;14.57;;
11500;SDS011;5807;51.606;7.624;2022-11-13T04:10:11;19.30;;;14.90;;
11500;SDS011;5807;51.606;7.624;2022-11-13T04:12:38;17.37;;;15.50;;
11500;SDS011;5807;51.606;7.624;2022-11-13T04:15:05;20.03;;;14.87;;
11500;SDS011;5807;51.606;7.624;2022-11-13T04:17:32;19.03;;;15.13;;
11500;SDS011;5807;51.606;7.624;2022-11-13T04:19:59;18.93;;;14.03;;
11500;SDS011;5807;51.606;7.624;2022-11-13T04:22:26;19.30;;;14.93;;
11500;SDS011;5807;51.606;7.624;2022-11-13T04:24:54;21.10;;;15.33;;
11500;SDS011;5807;51.606;7.624;2022-11-13T04:27:21;20.70;;;14.33;;
11500;SDS011;5807;51.606;7.624;2022-11-13T04:29:48;17.87;;;14.90;;
11500;SDS011;5807;51.606;7.624;2022-11-13T04:32:15;17.00;;;14.83;;
11500;SDS011;5807;51.606;7.624;2022-11-13T04:34:42;18.63;;;14.17;;
11500;SDS011;5807;51.606;7.624;2022-11-13T04:37:08;17.90;;;14.87;;
11500;SDS011;5807;51.606;7.624;2022-11-13T04:39:35;17.30;;;15.17;;
11500;SDS011;5807;51.606;7.624;2022-11-13T04:42:03;15.93;;;14.33;;
11500;SDS011;5807;51.606;7.624;2022-11-13T04:44:48;19.10;;;15.50;;
11500;SDS011;5807;51.606;7.624;2022-11-13T04:47:15;22.27;;;15.03;;
11500;SDS011;5807;51.606;7.624;2022-11-13T04:49:42;19.10;;;15.67;;
11500;SDS011;5807;51.606;7.624;2022-11-13T04:52:09;19.97;;;16.00;;
11500;SDS011;5807;51.606;7.624;2022-11-13T04:54:36;16.90;;;14.67;;
11500;SDS011;5807;51.606;7.624;2022-11-13T04:57:05;18.40;;;14.37;;
11500;SDS011;5807;51.606;7.624;2022-11-13T04:59:32;18.57;;;15.37;;
11500;SDS011;5807;51.606;7.624;2022-11-13T05:01:58;21.07;;;15.17;;
11500;SDS011;5807;51.606;7.624;2022-11-13T05:04:25;18.30;;;15.63;;
11500;SDS011;5807;51.606;7.624;2022-11-13T05:06:52;19.83;;;14.57;;
11500;SDS011;5807;51.606;7.624;2022-11-13T05:09:19;16.83;;;14.27;;
11500;SDS011;5807;51.606;7.624;2022-11-13T05:11:45;18.43;;;13.93;;
11500;SDS011;5807;51.606;7.624;2022-11-13T05:14:14;17.43;;;14.60;;
11500;SDS011;5807;51.606;7.624;2022-11-13T05:16:41;17.20;;;14.93;;
11500;SDS011;5807;51.606;7.624;2022-11-13T05:19:08;18.63;;;14.20;;
11500;SDS011;5807;51.606;7.624;2022-11-13T05:21:35;17.47;;;14.27;;
11500;SDS011;5807;51.606;7.624;2022-11-13T05:24:03;16.83;;;14.43;;
11500;SDS011;5807;51.606;7.624;2022-11-13T05:26:30;19.90;;;15.03;;
11500;SDS011;5807;51.606;7.624;2022-11-13T05:28:57;17.77;;;13.97;;
11500;SDS011;5807;51.606;7.624;2022-11-13T05:31:26;17.83;;;15.50;;
11500;SDS011;5807;51.606;7.624;2022-11-13T05:33:53;16.67;;;14.47;;
11500;SDS011;5807;51.606;7.624;2022-11-13T05:36:20;20.10;;;15.53;;
11500;SDS011;5807;51.606;7.624;2022-11-13T05:38:48;17.37;;;14.83;;
11500;SDS011;5807;51.606;7.624;2022-11-13T05:41:15;22.23;;;15.77;;
11500;SDS011;5807;51.606;7.624;2022-11-13T05:43:43;19.97;;;16.27;;
11500;SDS011;5807;51.606;7.624;2022-11-13T05:46:12;20.10;;;16.27;;
11500;SDS011;5807;51.606;7.624;2022-11-13T05:48:42;18.87;;;15.27;;
11500;SDS011;5807;51.606;7.624;2022-11-13T05:51:10;19.30;;;15.93;;
11500;SDS011;5807;51.606;7.624;2022-11-13T05:53:38;24.47;;;17.27;;
11500;SDS011;5807;51.606;7.624;2022-11-13T05:56:09;21.43;;;16.30;;
11500;SDS011;5807;51.606;7.624;2022-11-13T05:58:37;17.93;;;15.27;;
11500;SDS011;5807;51.606;7.624;2022-11-13T06:01:06;19.93;;;15.80;;
11500;SDS011;5807;51.606;7.624;2022-11-13T06:03:34;16.90;;;14.93;;
11500;SDS011;5807;51.606;7.624;2022-11-13T06:06:03;19.87;;;16.23;;
11500;SDS011;5807;51.606;7.624;2022-11-13T06:08:31;18.40;;;15.93;;
11500;SDS011;5807;51.606;7.624;2022-11-13T06:10:58;18.93;;;15.67;;
11500;SDS011;5807;51.606;7.624;2022-11-13T06:13:25;19.63;;;16.63;;
11500;SDS011;5807;51.606;7.624;2022-11-13T06:15:53;18.47;;;15.17;;
11500;SDS011;5807;51.606;7.624;2022-11-13T06:18:20;18.17;;;16.00;;
11500;SDS011;5807;51.606;7.624;2022-11-13T06:20:48;19.43;;;15.03;;
11500;SDS011;5807;51.606;7.624;2022-11-13T06:23:16;20.30;;;14.93;;
11500;SDS011;5807;51.606;7.624;2022-11-13T06:25:43;21.07;;;16.13;;
11500;SDS011;5807;51.606;7.624;2022-11-13T06:28:09;16.47;;;14.67;;
11500;SDS011;5807;51.606;7.624;2022-11-13T06:30:37;20.30;;;16.03;;
11500;SDS011;5807;51.606;7.624;2022-11-13T06:33:03;19.57;;;15.47;;
11500;SDS011;5807;51.606;7.624;2022-11-13T06:35:30;19.10;;;15.20;;
11500;SDS011;5807;51.606;7.624;2022-11-13T06:37:57;20.50;;;15.93;;
11500;SDS011;5807;51.606;7.624;2022-11-13T06:40:25;20.13;;;16.03;;
11500;SDS011;5807;51.606;7.624;2022-11-13T06:42:52;19.50;;;15.43;;
11500;SDS011;5807;51.606;7.624;2022-11-13T06:45:19;20.63;;;16.47;;
11500;SDS011;5807;51.606;7.624;2022-11-13T06:47:46;19.23;;;15.63;;
11500;SDS011;5807;51.606;7.624;2022-11-13T06:50:12;24.47;;;16.60;;
11500;SDS011;5807;51.606;7.624;2022-11-13T06:52:39;21.23;;;16.77;;
11500;SDS011;5807;51.606;7.624;2022-11-13T06:55:06;21.17;;;16.37;;
11500;SDS011;5807;51.606;7.624;2022-11-13T06:57:34;19.00;;;16.87;;
11500;SDS011;5807;51.606;7.624;2022-11-13T07:00:02;21.10;;;17.37;;
11500;SDS011;5807;51.606;7.624;2022-11-13T07:02:30;19.87;;;16.67;;
11500;SDS011;5807;51.606;7.624;2022-11-13T07:04:56;22.80;;;16.63;;
11500;SDS011;5807;51.606;7.624;2022-11-13T07:07:23;19.93;;;16.53;;
11500;SDS011;5807;51.606;7.624;2022-11-13T07:09:50;22.33;;;16.67;;
11500;SDS011;5807;51.606;7.624;2022-11-13T07:12:17;21.00;;;16.53;;
11500;SDS011;5807;51.606;7.624;2022-11-13T07:14:45;21.00;;;16.00;;
11500;SDS011;5807;51.606;7.624;2022-11-13T07:17:12;17.83;;;15.57;;
11500;SDS011;5807;51.606;7.624;2022-11-13T07:19:39;19.20;;;16.00;;
11500;SDS011;5807;51.606;7.624;2022-11-13T07:22:05;20.20;;;16.90;;
11500;SDS011;5807;51.606;7.624;2022-11-13T07:24:32;23.23;;;16.50;;
11500;SDS011;5807;51.606;7.624;2022-11-13T07:26:59;22.53;;;17.30;;
11500;SDS011;5807;51.606;7.624;2022-11-13T07:29:26;20.00;;;16.30;;
11500;SDS011;5807;51.606;7.624;2022-11-13T07:31:54;22.33;;;18.13;;
11500;SDS011;5807;51.606;7.624;2022-11-13T07:34:20;21.87;;;18.00;;
11500;SDS011;5807;51.606;7.624;2022-11-13T07:36:47;23.07;;;19.03;;
11500;SDS011;5807;51.606;7.624;2022-11-13T07:39:14;21.13;;;17.43;;
11500;SDS011;5807;51.606;7.624;2022-11-13T07:41:41;23.00;;;18.27;;
11500;SDS011;5807;51.606;7.624;2022-11-13T07:44:08;22.57;;;18.33;;
11500;SDS011;5807;51.606;7.624;2022-11-13T07:46:34;23.63;;;17.83;;
11500;SDS011;5807;51.606;7.624;2022-11-13T07:49:03;26.03;;;19.30;;
11500;SDS011;5807;51.606;7.624;2022-11-13T07:51:30;22.60;;;18.63;;
11500;SDS011;5807;51.606;7.624;2022-11-13T07:53:57;24.87;;;19.07;;
11500;SDS011;5807;51.606;7.624;2022-11-13T07:56:24;25.73;;;19.70;;
11500;SDS011;5807;51.606;7.624;2022-11-13T07:58:51;26.80;;;19.63;;
11500;SDS011;5807;51.606;7.624;2022-11-13T08:01:19;25.70;;;20.60;;
11500;SDS011;5807;51.606;7.624;2022-11-13T08:03:46;24.20;;;21.07;;
11500;SDS011;5807;51.606;7.624;2022-11-13T08:06:14;24.30;;;19.50;;
11500;SDS011;5807;51.606;7.624;2022-11-13T08:08:41;26.07;;;20.57;;
11500;SDS011;5807;51.606;7.624;2022-11-13T08:11:08;24.20;;;20.60;;
11500;SDS011;5807;51.606;7.624;2022-11-13T08:13:35;25.57;;;20.20;;
11500;SDS011;5807;51.606;7.624;2022-11-13T08:16:02;26.20;;;20.43;;
11500;SDS011;5807;51.606;7.624;2022-11-13T08:18:30;26.57;;;20.87;;
11500;SDS011;5807;51.606;7.624;2022-11-13T08:20:59;28.73;;;21.17;;
11500;SDS011;5807;51.606;7.624;2022-11-13T08:23:28;25.63;;;20.90;;
11500;SDS011;5807;51.606;7.624;2022-11-13T08:25:55;29.30;;;22.17;;
11500;SDS011;5807;51.606;7.624;2022-11-13T08:28:23;27.40;;;22.10;;
11500;SDS011;5807;51.606;7.624;2022-11-13T08:30:49;31.13;;;21.93;;
11500;SDS011;5807;51.606;7.624;2022-11-13T08:33:16;26.07;;;22.27;;
11500;SDS011;5807;51.606;7.624;2022-11-13T08:35:50;27.17;;;22.17;;
11500;SDS011;5807;51.606;7.624;2022-11-13T08:38:18;27.77;;;23.63;;
11500;SDS011;5807;51.606;7.624;2022-11-13T08:40:46;24.47;;;21.87;;
11500;SDS011;5807;51.606;7.624;2022-11-13T08:43:13;25.87;;;21.47;;
11500;SDS011;5807;51.606;7.624;2022-11-13T08:45:40;25.03;;;21.00;;
11500;SDS011;5807;51.606;7.624;2022-11-13T08:48:07;23.97;;;20.20;;
11500;SDS011;5807;51.606;7.624;2022-11-13T08:50:34;24.00;;;21.20;;
11500;SDS011;5807;51.606;7.624;2022-11-13T08:53:02;21.33;;;19.03;;
11500;SDS011;5807;51.606;7.624;2022-11-13T08:55:29;20.77;;;17.60;;
11500;SDS011;5807;51.606;7.624;2022-11-13T08:57:58;18.83;;;17.00;;
11500;SDS011;5807;51.606;7.624;2022-11-13T09:00:25;18.57;;;15.57;;
11500;SDS011;5807;51.606;7.624;2022-11-13T09:02:53;14.17;;;12.67;;
11500;SDS011;5807;51.606;7.624;2022-11-13T09:05:20;11.57;;;10.47;;
11500;SDS011;5807;51.606;7.624;2022-11-13T09:07:47;9.77;;;8.80;;
11500;SDS011;5807;51.606;7.624;2022-11-13T09:10:14;8.40;;;7.60;;
11500;SDS011;5807;51.606;7.624;2022-11-13T09:12:41;7.57;;;6.93;;
11500;SDS011;5807;51.606;7.624;2022-11-13T09:15:10;9.93;;;8.80;;
11500;SDS011;5807;51.606;7.624;2022-11-13T09:17:37;9.27;;;7.53;;
11500;SDS011;5807;51.606;7.624;2022-11-13T09:20:04;8.27;;;7.47;;
11500;SDS011;5807;51.606;7.624;2022-11-13T09:22:32;8.17;;;7.43;;
11500;SDS011;5807;51.606;7.624;2022-11-13T09:25:00;8.93;;;8.13;;
11500;SDS011;5807;51.606;7.624;2022-11-13T09:27:27;8.50;;;7.70;;
11500;SDS011;5807;51.606;7.624;2022-11-13T09:29:54;9.37;;;7.53;;
11500;SDS011;5807;51.606;7.624;2022-11-13T09:32:22;10.20;;;9.20;;
11500;SDS011;5807;51.606;7.624;2022-11-13T09:34:49;9.00;;;8.10;;
11500;SDS011;5807;51.606;7.624;2022-11-13T09:37:16;9.23;;;8.30;;
11500;SDS011;5807;51.606;7.624;2022-11-13T09:39:43;8.03;;;7.27;;
11500;SDS011;5807;51.606;7.624;2022-11-13T09:42:11;7.37;;;6.50;;
11500;SDS011;5807;51.606;7.624;2022-11-13T09:44:42;7.50;;;6.80;;
11500;SDS011;5807;51.606;7.624;2022-11-13T09:47:14;7.07;;;6.37;;
11500;SDS011;5807;51.606;7.624;2022-11-13T09:49:45;7.57;;;6.90;;
11500;SDS011;5807;51.606;7.624;2022-11-13T09:52:16;7.20;;;6.60;;
11500;SDS011;5807;51.606;7.624;2022-11-13T09:54:45;9.03;;;6.67;;
11500;SDS011;5807;51.606;7.624;2022-11-13T09:57:16;8.27;;;6.40;;
11500;SDS011;5807;51.606;7.624;2022-11-13T09:59:51;6.40;;;5.80;;
11500;SDS011;5807;51.606;7.624;2022-11-13T10:02:21;6.40;;;5.90;;
11500;SDS011;5807;51.606;7.624;2022-11-13T10:04:56;7.30;;;6.60;;
11500;SDS011;5807;51.606;7.624;2022-11-13T10:07:31;7.20;;;6.50;;
11500;SDS011;5807;51.606;7.624;2022-11-13T10:10:15;7.33;;;6.63;;
11500;SDS011;5807;51.606;7.624;2022-11-13T10:13:01;6.97;;;6.37;;
11500;SDS011;5807;51.606;7.624;2022-11-13T10:15:29;6.30;;;5.80;;
11500;SDS011;5807;51.606;7.624;2022-11-13T10:17:57;6.50;;;5.77;;
11500;SDS011;5807;51.606;7.624;2022-11-13T10:20:32;6.23;;;5.73;;
11500;SDS011;5807;51.606;7.624;2022-11-13T10:23:05;6.93;;;6.23;;
11500;SDS011;5807;51.606;7.624;2022-11-13T10:25:35;7.63;;;5.40;;
11500;SDS011;5807;51.606;7.624;2022-11-13T10:28:08;6.10;;;5.60;;
11500;SDS011;5807;51.606;7.624;2022-11-13T10:30:38;6.27;;;5.70;;
11500;SDS011;5807;51.606;7.624;2022-11-13T10:33:06;5.87;;;5.37;;
11500;SDS011;5807;51.606;7.624;2022-11-13T10:35:45;6.53;;;5.70;;
11500;SDS011;5807;51.606;7.624;2022-11-13T10:38:19;5.90;;;5.40;;
11500;SDS011;5807;51.606;7.624;2022-11-13T10:40:49;6.13;;;5.63;;
11500;SDS011;5807;51.606;7.624;2022-11-13T10:43:17;6.13;;;5.53;;
11500;SDS011;5807;51.606;7.624;2022-11-13T10:45:52;6.67;;;5.60;;
11500;SDS011;5807;51.606;7.624;2022-11-13T10:48:22;5.83;;;5.33;;
11500;SDS011;5807;51.606;7.624;2022-11-13T10:50:55;6.07;;;5.57;;
11500;SDS011;5807;51.606;7.624;2022-11-13T10:53:24;5.63;;;5.23;;
11500;SDS011;5807;51.606;7.624;2022-11-13T10:55:53;5.97;;;5.40;;
11500;SDS011;5807;51.606;7.624;2022-11-13T10:58:22;5.77;;;5.27;;
11500;SDS011;5807;51.606;7.624;2022-11-13T11:00:49;5.40;;;4.90;;
11500;SDS011;5807;51.606;7.624;2022-11-13T11:03:17;5.33;;;4.83;;
11500;SDS011;5807;51.606;7.624;2022-11-13T11:05:51;5.93;;;5.33;;
11500;SDS011;5807;51.606;7.624;2022-11-13T11:08:22;5.27;;;4.77;;
11500;SDS011;5807;51.606;7.624;2022-11-13T11:11:00;5.57;;;4.80;;
11500;SDS011;5807;51.606;7.624;2022-11-13T11:13:45;5.00;;;4.50;;
11500;SDS011;5807;51.606;7.624;2022-11-13T11:16:15;5.40;;;4.90;;
11500;SDS011;5807;51.606;7.624;2022-11-13T11:18:46;5.53;;;3.83;;
11500;SDS011;5807;51.606;7.624;2022-11-13T11:21:19;4.47;;;4.07;;
11500;SDS011;5807;51.606;7.624;2022-11-13T11:23:49;4.13;;;3.83;;
11500;SDS011;5807;51.606;7.624;2022-11-13T11:26:22;3.90;;;3.60;;
11500;SDS011;5807;51.606;7.624;2022-11-13T11:28:59;4.03;;;3.63;;
11500;SDS011;5807;51.606;7.624;2022-11-13T11:31:39;4.57;;;4.27;;
11500;SDS011;5807;51.606;7.624;2022-11-13T11:34:14;4.07;;;3.77;;
11500;SDS011;5807;51.606;7.624;2022-11-13T11:36:46;4.30;;;4.00;;
11500;SDS011;5807;51.606;7.624;2022-11-13T11:39:28;6.30;;;4.37;;
11500;SDS011;5807;51.606;7.624;2022-11-13T11:42:03;4.00;;;3.70;;
11500;SDS011;5807;51.606;7.624;2022-11-13T11:44:44;4.60;;;3.80;;
11500;SDS011;5807;51.606;7.624;2022-11-13T11:47:22;3.80;;;3.10;;
11500;SDS011;5807;51.606;7.624;2022-11-13T11:49:49;3.27;;;2.87;;
11500;SDS011;5807;51.606;7.624;2022-11-13T11:52:23;3.33;;;3.03;;
11500;SDS011;5807;51.606;7.624;2022-11-13T11:55:13;2.50;;;2.30;;
11500;SDS011;5807;51.606;7.624;2022-11-13T11:57:52;2.70;;;2.50;;
11500;SDS011;5807;51.606;7.624;2022-11-13T12:00:28;2.10;;;2.00;;
11500;SDS011;5807;51.606;7.624;2022-11-13T12:03:09;3.10;;;2.77;;
11500;SDS011;5807;51.606;7.624;2022-11-13T12:06:03;2.33;;;2.23;;
11500;SDS011;5807;51.606;7.624;2022-11-13T12:08:35;2.63;;;2.43;;
11500;SDS011;5807;51.606;7.624;2022-11-13T12:11:13;2.33;;;2.13;;
11500;SDS011;5807;51.606;7.624;2022-11-13T12:13:47;3.27;;;2.97;;
11500;SDS011;5807;51.606;7.624;2022-11-13T12:16:25;3.93;;;3.60;;
11500;SDS011;5807;51.606;7.624;2022-11-13T12:18:58;2.80;;;2.60;;
11500;SDS011;5807;51.606;7.624;2022-11-13T12:21:32;2.70;;;2.50;;
11500;SDS011;5807;51.606;7.624;2022-11-13T12:24:13;2.60;;;2.40;;
11500;SDS011;5807;51.606;7.624;2022-11-13T12:26:58;2.67;;;2.47;;
11500;SDS011;5807;51.606;7.624;2022-11-13T12:29:35;3.07;;;2.33;;
11500;SDS011;5807;51.606;7.624;2022-11-13T12:32:13;7.00;;;2.80;;
11500;SDS011;5807;51.606;7.624;2022-11-13T12:34:55;2.50;;;2.27;;
11500;SDS011;5807;51.606;7.624;2022-11-13T12:37:26;2.63;;;2.30;;
11500;SDS011;5807;51.606;7.624;2022-11-13T12:40:01;2.03;;;1.93;;
11500;SDS011;5807;51.606;7.624;2022-11-13T12:42:34;3.00;;;2.50;;
11500;SDS011;5807;51.606;7.624;2022-11-13T12:45:08;2.10;;;2.00;;
11500;SDS011;5807;51.606;7.624;2022-11-13T12:47:42;2.47;;;2.30;;
11500;SDS011;5807;51.606;7.624;2022-11-13T12:50:19;2.50;;;2.30;;
11500;SDS011;5807;51.606;7.624;2022-11-13T12:52:59;3.13;;;2.90;;
11500;SDS011;5807;51.606;7.624;2022-11-13T12:55:27;2.70;;;2.50;;
11500;SDS011;5807;51.606;7.624;2022-11-13T12:57:57;2.03;;;1.93;;
11500;SDS011;5807;51.606;7.624;2022-11-13T13:00:33;2.63;;;2.20;;
11500;SDS011;5807;51.606;7.624;2022-11-13T13:03:06;2.50;;;2.40;;
11500;SDS011;5807;51.606;7.624;2022-11-13T13:05:51;2.17;;;2.07;;
11500;SDS011;5807;51.606;7.624;2022-11-13T13:08:32;3.20;;;2.00;;
11500;SDS011;5807;51.606;7.624;2022-11-13T13:11:15;2.10;;;2.00;;
11500;SDS011;5807;51.606;7.624;2022-11-13T13:13:50;4.00;;;2.63;;
11500;SDS011;5807;51.606;7.624;2022-11-13T13:16:27;2.50;;;2.27;;
11500;SDS011;5807;51.606;7.624;2022-11-13T13:19:04;2.63;;;2.20;;
11500;SDS011;5807;51.606;7.624;2022-11-13T13:21:38;2.17;;;2.07;;
11500;SDS011;5807;51.606;7.624;2022-11-13T13:24:07;2.40;;;2.30;;
11500;SDS011;5807;51.606;7.624;2022-11-13T13:26:42;2.53;;;2.30;;
11500;SDS011;5807;51.606;7.624;2022-11-13T13:29:15;2.47;;;2.27;;
11500;SDS011;5807;51.606;7.624;2022-11-13T13:31:45;2.83;;;2.63;;
11500;SDS011;5807;51.606;7.624;2022-11-13T13:34:18;2.80;;;2.63;;
11500;SDS011;5807;51.606;7.624;2022-11-13T13:36:53;3.63;;;2.60;;
11500;SDS011;5807;51.606;7.624;2022-11-13T13:39:29;2.83;;;2.63;;
11500;SDS011;5807;51.606;7.624;2022-11-13T13:42:11;2.97;;;2.77;;
11500;SDS011;5807;51.606;7.624;2022-11-13T13:44:51;6.50;;;4.33;;
11500;SDS011;5807;51.606;7.624;2022-11-13T13:47:28;3.10;;;2.90;;
11500;SDS011;5807;51.606;7.624;2022-11-13T13:49:57;5.50;;;4.17;;
11500;SDS011;5807;51.606;7.624;2022-11-13T13:52:25;5.20;;;4.43;;
11500;SDS011;5807;51.606;7.624;2022-11-13T13:54:55;4.53;;;4.13;;
11500;SDS011;5807;51.606;7.624;2022-11-13T13:57:22;3.73;;;3.43;;
11500;SDS011;5807;51.606;7.624;2022-11-13T13:59:53;4.27;;;3.87;;
11500;SDS011;5807;51.606;7.624;2022-11-13T14:02:20;4.20;;;3.90;;
11500;SDS011;5807;51.606;7.624;2022-11-13T14:04:48;4.77;;;4.37;;
11500;SDS011;5807;51.606;7.624;2022-11-13T14:07:18;4.27;;;3.97;;
11500;SDS011;5807;51.606;7.624;2022-11-13T14:09:47;4.63;;;4.23;;
11500;SDS011;5807;51.606;7.624;2022-11-13T14:12:18;4.10;;;3.70;;
11500;SDS011;5807;51.606;7.624;2022-11-13T14:14:46;4.93;;;4.43;;
11500;SDS011;5807;51.606;7.624;2022-11-13T14:17:21;7.23;;;4.40;;
11500;SDS011;5807;51.606;7.624;2022-11-13T14:19:49;4.33;;;3.93;;
11500;SDS011;5807;51.606;7.624;2022-11-13T14:22:16;5.30;;;4.27;;
11500;SDS011;5807;51.606;7.624;2022-11-13T14:24:44;4.30;;;4.00;;
11500;SDS011;5807;51.606;7.624;2022-11-13T14:27:18;3.97;;;3.67;;
11500;SDS011;5807;51.606;7.624;2022-11-13T14:29:48;3.83;;;3.50;;
11500;SDS011;5807;51.606;7.624;2022-11-13T14:32:19;4.57;;;4.10;;
11500;SDS011;5807;51.606;7.624;2022-11-13T14:34:47;4.23;;;3.83;;
11500;SDS011;5807;51.606;7.624;2022-11-13T14:37:19;4.27;;;3.80;;
11500;SDS011;5807;51.606;7.624;2022-11-13T14:39:49;5.63;;;3.90;;
11500;SDS011;5807;51.606;7.624;2022-11-13T14:42:17;4.30;;;3.90;;
11500;SDS011;5807;51.606;7.624;2022-11-13T14:44:46;4.07;;;3.63;;
11500;SDS011;5807;51.606;7.624;2022-11-13T14:47:21;4.00;;;3.63;;
11500;SDS011;5807;51.606;7.624;2022-11-13T14:49:50;4.33;;;3.93;;
11500;SDS011;5807;51.606;7.624;2022-11-13T14:52:21;4.13;;;3.83;;
11500;SDS011;5807;51.606;7.624;2022-11-13T14:54:58;4.13;;;3.77;;
11500;SDS011;5807;51.606;7.624;2022-11-13T14:57:27;3.70;;;3.43;;
11500;SDS011;5807;51.606;7.624;2022-11-13T14:59:54;5.07;;;4.23;;